X  Tanca Dades meteorològiques de l'aviació METAR        LYNI Nis Airport
Temperatura
27°C Temperatura
9°C Rosada
32% Humitat



Vent
6 KM/H
3 MPH
1 M/S
3 NUS



90°
E
Condicions actuals

Mostly Sunny Majoritàriament assolellat
Pressió 1020 (hPa) - 30.12 (inHg)
Visibilitat 6 (milla) - 10 (km)
Aeroport
Codi aeroport LYNI

Ubicació: Nis Airport
Distància: 63 (km)

Metar:
METAR LYNI 141430Z 09003KT 040V120 CAVOK 27/09 Q1021 NOSIG

Temps: 14-04-2024 16:30 CEST